Time;durP1;ratioP1;P1;durP2;ratioP2;P2;SDS_P1;SDS_P2;PMS_P1;PMS_P2;Temp;Humidity;BMP_temperature;BMP_pressure;BME280_temperature;BME280_humidity;BME280_pressure;Samples;Min_cycle;Max_cycle;Signal;HPM_P1;HPM_P2
2021/12/19 00:00:30;;;;;;;3.95;2.37;;;;;;;2.00;82.22;148170.94;1707646;82;21062;-59
2021/12/19 00:11:01;;;;;;;5.87;1.90;;;;;;;1.98;82.35;148167.06;1715935;81;21069;-57
2021/12/19 00:13:30;;;;;;;4.40;2.33;;;;;;;2.01;82.15;148173.53;1705846;81;21110;-58
2021/12/19 00:15:57;;;;;;;7.50;2.75;;;;;;;2.03;82.04;148177.36;1671037;83;21139;-61
2021/12/19 00:18:24;;;;;;;8.50;3.17;;;;;;;2.04;81.69;148179.94;1743642;80;21796;-61
2021/12/19 00:20:50;;;;;;;6.00;3.10;;;;;;;2.04;81.52;148179.94;1736737;80;21058;-61
2021/12/19 00:23:17;;;;;;;5.97;3.20;;;;;;;2.05;81.48;148182.52;1739980;79;21092;-60
2021/12/19 00:25:44;;;;;;;5.83;3.17;;;;;;;2.06;81.41;148186.41;1726177;80;21093;-61
2021/12/19 00:28:11;;;;;;;7.22;2.83;;;;;;;2.04;81.28;148181.25;1736904;80;21064;-59
2021/12/19 00:30:39;;;;;;;5.72;3.12;;;;;;;1.98;81.31;148167.06;1720231;80;21149;-60
2021/12/19 00:33:06;;;;;;;6.10;2.87;;;;;;;1.97;81.40;148164.48;1718313;80;21184;-59
2021/12/19 00:35:33;;;;;;;7.10;2.80;;;;;;;1.98;81.37;148167.06;1720356;80;21702;-58
2021/12/19 00:38:00;;;;;;;5.03;2.58;;;;;;;2.01;81.29;148173.53;1724165;80;21154;-59
2021/12/19 00:40:26;;;;;;;4.45;2.60;;;;;;;2.03;81.20;148177.36;1734998;80;21061;-61
2021/12/19 00:43:03;;;;;;;6.30;3.15;;;;;;;2.03;81.09;148177.36;1729188;80;21115;-62
2021/12/19 00:45:32;;;;;;;4.45;2.92;;;;;;;2.04;80.82;148179.94;1733229;80;21120;-61
2021/12/19 00:47:53;;;;;;;4.42;2.58;;;;;;;2.04;80.69;148179.94;1730581;80;21050;-61
2021/12/19 00:50:20;;;;;;;5.78;2.55;;;;;;;2.03;80.46;148178.67;1702112;81;21048;-62
2021/12/19 00:52:48;;;;;;;4.53;2.50;;;;;;;2.01;80.17;148173.53;1666063;83;21685;-61
2021/12/19 00:55:16;;;;;;;5.62;2.40;;;;;;;1.99;80.04;148168.38;1708807;81;21469;-61
2021/12/19 00:57:43;;;;;;;4.28;2.02;;;;;;;1.98;79.70;148167.06;1703904;81;21100;-61
2021/12/19 01:00:11;;;;;;;4.05;2.27;;;;;;;1.99;79.61;148169.64;1681772;83;21604;-62
2021/12/19 01:02:38;;;;;;;3.05;2.00;;;;;;;2.02;79.50;148174.78;1689949;82;21075;-62
2021/12/19 01:05:08;;;;;;;3.87;2.08;;;;;;;2.01;79.28;148173.53;1680547;82;21144;-61
2021/12/19 01:07:35;;;;;;;5.00;2.65;;;;;;;1.99;79.31;148169.64;1729138;81;21496;-62
2021/12/19 01:10:04;;;;;;;4.25;2.45;;;;;;;1.98;79.30;148167.06;1745518;80;21487;-62
2021/12/19 01:12:32;;;;;;;5.22;2.10;;;;;;;2.00;79.30;148170.94;1744818;80;21053;-62
2021/12/19 01:14:58;;;;;;;3.00;2.20;;;;;;;2.01;79.19;148173.53;1723545;80;21118;-60
2021/12/19 01:17:25;;;;;;;2.92;1.65;;;;;;;2.03;78.81;148177.36;1736932;80;21124;-61
2021/12/19 01:19:52;;;;;;;3.65;2.02;;;;;;;2.06;78.44;148185.09;1743524;80;21762;-61
2021/12/19 01:22:19;;;;;;;2.47;1.95;;;;;;;2.07;78.02;148188.97;1733745;80;21071;-61
2021/12/19 01:24:45;;;;;;;2.70;1.82;;;;;;;2.11;77.43;148198.02;1718919;81;21053;-61
2021/12/19 01:27:12;;;;;;;2.55;1.90;;;;;;;2.13;77.35;148203.17;1708452;81;21060;-61
2021/12/19 01:29:39;;;;;;;4.28;1.80;;;;;;;2.13;77.38;148203.17;1724775;80;21151;-61
2021/12/19 01:32:07;;;;;;;3.50;2.08;;;;;;;2.14;77.36;148205.75;1690732;82;21183;-61
2021/12/19 01:34:34;;;;;;;3.47;1.77;;;;;;;2.11;77.47;148198.02;1708778;81;21124;-61
2021/12/19 01:37:00;;;;;;;3.10;1.92;;;;;;;2.11;77.52;148198.02;1695531;81;21092;-61
2021/12/19 01:39:27;;;;;;;3.75;1.92;;;;;;;2.10;77.43;148195.41;1707221;80;22384;-61
2021/12/19 01:41:55;;;;;;;4.33;1.98;;;;;;;2.10;77.30;148195.41;1738791;80;21041;-61
2021/12/19 01:44:23;;;;;;;3.60;1.65;;;;;;;2.10;77.09;148195.41;1745380;80;21479;-62
2021/12/19 01:46:51;;;;;;;3.52;2.05;;;;;;;2.11;76.98;148198.02;1744530;80;21048;-62
2021/12/19 01:49:19;;;;;;;3.83;2.00;;;;;;;2.12;76.91;148201.86;1739635;80;21562;-61
2021/12/19 01:51:46;;;;;;;3.27;1.65;;;;;;;2.12;76.89;148200.59;1712261;80;21062;-61
2021/12/19 01:54:14;;;;;;;3.65;2.00;;;;;;;2.11;77.06;148198.02;1740221;80;21072;-62
2021/12/19 01:56:41;;;;;;;3.12;1.62;;;;;;;2.12;77.22;148200.59;1742507;80;21969;-61
2021/12/19 01:59:10;;;;;;;2.70;1.70;;;;;;;2.12;77.25;148200.59;1746703;80;21352;-62
2021/12/19 02:01:47;;;;;;;3.52;1.92;;;;;;;2.12;77.41;148200.59;1706197;82;21019;-60
2021/12/19 02:04:15;;;;;;;5.80;2.10;;;;;;;2.15;77.63;148208.33;1714330;81;21081;-62
2021/12/19 02:06:42;;;;;;;3.62;2.00;;;;;;;2.15;77.96;148208.33;1712150;81;21552;-60
2021/12/19 02:09:10;;;;;;;3.60;2.10;;;;;;;2.14;78.34;148205.75;1714182;80;21152;-60
2021/12/19 02:11:39;;;;;;;6.80;2.20;;;;;;;2.11;78.76;148199.28;1716148;81;21277;-62
2021/12/19 02:14:06;;;;;;;4.58;2.50;;;;;;;2.10;79.26;148195.41;1706126;81;21041;-58
2021/12/19 02:16:32;;;;;;;3.37;2.15;;;;;;;2.09;79.82;148192.81;1749308;80;21100;-58
2021/12/19 02:19:00;;;;;;;4.28;2.47;;;;;;;2.07;80.38;148187.67;1743078;80;21064;-59
2021/12/19 02:21:27;;;;;;;3.72;2.25;;;;;;;2.05;80.79;148182.52;1744370;80;21551;-59
2021/12/19 02:23:59;;;;;;;3.50;2.37;;;;;;;2.03;81.33;148177.36;1727268;80;21673;-60
2021/12/19 02:26:26;;;;;;;3.05;2.20;;;;;;;2.03;81.81;148177.36;1724600;80;21110;-58
2021/12/19 02:28:53;;;;;;;6.55;2.20;;;;;;;2.03;82.26;148177.36;1722047;80;21083;-60
2021/12/19 02:31:22;;;;;;;7.10;2.65;;;;;;;2.03;82.67;148178.67;1722478;80;21497;-61
2021/12/19 02:36:48;;;;;;;4.20;2.33;;;;;;;1.97;83.28;148164.48;1693174;80;21075;-61
2021/12/19 02:50:12;;;;;;;4.12;2.37;;;;;;;2.01;84.57;148173.53;1713591;78;21217;-61
2021/12/19 02:52:39;;;;;;;3.20;2.00;;;;;;;2.02;84.75;148174.78;1735539;80;21078;-57
2021/12/19 02:55:08;;;;;;;4.00;2.17;;;;;;;2.02;84.93;148174.78;1732134;80;21285;-61
2021/12/19 02:57:36;;;;;;;3.45;2.33;;;;;;;2.00;85.14;148172.22;1722392;80;22958;-61
2021/12/19 03:00:08;;;;;;;3.35;2.08;;;;;;;2.01;85.30;148173.53;1718620;81;21077;-61
2021/12/19 03:02:36;;;;;;;3.08;2.00;;;;;;;2.03;85.42;148177.36;1738838;80;21081;-62
2021/12/19 03:05:04;;;;;;;5.35;2.10;;;;;;;1.99;85.61;148168.38;1726709;80;21024;-59
2021/12/19 03:07:31;;;;;;;3.87;1.98;;;;;;;1.98;85.70;148165.75;1728273;80;21105;-59
2021/12/19 03:18:10;;;;;;;3.60;2.33;;;;;;;1.99;86.42;148168.38;1734386;80;21064;-58
2021/12/19 03:20:39;;;;;;;2.90;2.17;;;;;;;1.99;86.52;148168.38;1737438;80;21070;-58
2021/12/19 03:23:07;;;;;;;2.95;2.10;;;;;;;1.97;86.71;148164.48;1700091;80;21061;-58
2021/12/19 03:25:33;;;;;;;4.80;2.50;;;;;;;2.00;86.93;148172.22;1719062;80;22386;-58
2021/12/19 03:28:02;;;;;;;4.80;2.33;;;;;;;2.03;87.06;148177.36;1750036;79;21029;-59
2021/12/19 03:30:29;;;;;;;4.25;2.62;;;;;;;2.05;87.16;148182.52;1719745;81;21093;-60
2021/12/19 03:32:56;;;;;;;4.95;2.60;;;;;;;2.07;87.30;148187.67;1739582;80;21689;-61
2021/12/19 03:35:23;;;;;;;3.90;2.50;;;;;;;2.06;87.23;148186.41;1734065;80;21120;-61
2021/12/19 03:37:52;;;;;;;3.62;2.37;;;;;;;2.06;87.43;148186.41;1729958;80;22341;-60
2021/12/19 03:40:24;;;;;;;4.28;2.67;;;;;;;2.05;87.62;148183.83;1692146;82;21367;-62
2021/12/19 03:42:53;;;;;;;6.50;2.90;;;;;;;2.06;87.83;148186.41;1701070;81;21062;-62
2021/12/19 03:45:22;;;;;;;4.42;2.77;;;;;;;2.08;87.96;148190.25;1728427;81;21059;-61
2021/12/19 03:47:51;;;;;;;6.47;3.27;;;;;;;2.08;88.13;148190.25;1722456;81;36511;-61
2021/12/19 03:50:21;;;;;;;5.78;3.27;;;;;;;2.09;88.27;148192.81;1721160;81;21528;-61
2021/12/19 03:52:51;;;;;;;6.28;3.05;;;;;;;2.08;88.38;148190.25;1700078;81;21074;-61
2021/12/19 03:55:19;;;;;;;6.33;3.47;;;;;;;2.10;88.49;148195.41;1705439;81;21091;-61
2021/12/19 03:57:45;;;;;;;8.28;3.22;;;;;;;2.10;88.74;148195.41;1678636;82;21088;-61
2021/12/19 04:00:16;;;;;;;6.58;3.45;;;;;;;2.09;88.88;148194.13;1718522;81;21241;-59
2021/12/19 04:02:46;;;;;;;6.20;3.50;;;;;;;2.07;88.92;148187.67;1729730;80;21143;-59
2021/12/19 04:05:13;;;;;;;6.40;3.60;;;;;;;2.04;89.13;148181.25;1745023;80;21646;-58
2021/12/19 04:07:40;;;;;;;7.97;4.22;;;;;;;2.03;89.26;148177.36;1748410;79;21101;-58
2021/12/19 04:10:08;;;;;;;5.12;3.10;;;;;;;2.05;89.42;148182.52;1736814;80;21100;-59
2021/12/19 04:12:34;;;;;;;7.03;3.87;;;;;;;2.07;89.62;148187.67;1722612;80;21105;-59
2021/12/19 04:15:01;;;;;;;6.42;3.30;;;;;;;2.06;89.64;148186.41;1737638;80;21088;-58
2021/12/19 04:17:28;;;;;;;5.70;3.80;;;;;;;2.06;89.68;148185.09;1735968;79;21128;-59
2021/12/19 04:19:54;;;;;;;6.67;3.70;;;;;;;2.04;89.72;148181.25;1733961;80;21506;-59
2021/12/19 04:22:21;;;;;;;5.83;3.30;;;;;;;2.04;89.91;148179.94;1734038;80;21056;-58
2021/12/19 04:24:48;;;;;;;6.10;3.50;;;;;;;2.03;89.96;148178.67;1727869;81;21130;-61
2021/12/19 04:27:15;;;;;;;6.15;3.72;;;;;;;2.03;90.03;148177.36;1722395;81;21638;-60
2021/12/19 04:29:42;;;;;;;7.10;3.20;;;;;;;2.02;90.08;148174.78;1740708;80;21081;-60
2021/12/19 04:32:11;;;;;;;5.70;3.40;;;;;;;2.02;90.21;148174.78;1737982;80;21131;-60
2021/12/19 04:34:39;;;;;;;8.03;3.52;;;;;;;2.02;90.27;148174.78;1741376;80;21456;-60
2021/12/19 04:37:28;;;;;;;5.25;3.20;;;;;;;2.02;90.31;148174.78;1713238;80;21157;-60
2021/12/19 04:39:52;;;;;;;5.90;3.67;;;;;;;2.02;90.38;148176.09;1740299;80;21166;-60
2021/12/19 04:53:23;;;;;;;6.28;3.70;;;;;;;2.02;90.79;148176.09;1707077;82;21570;-59
2021/12/19 04:56:15;;;;;;;7.37;4.12;;;;;;;2.02;90.91;148174.78;1707750;81;21559;-61
2021/12/19 04:58:45;;;;;;;10.03;4.40;;;;;;;2.03;90.94;148177.36;1718007;81;21144;-59
2021/12/19 05:01:08;;;;;;;6.78;3.75;;;;;;;2.04;90.91;148181.25;1711730;81;20958;-61
2021/12/19 05:06:10;;;;;;;;;;;;;;;2.07;90.94;148187.67;1728857;81;21159;-58
2021/12/19 05:14:19;;;;;;;10.13;4.50;;;;;;;2.12;90.91;148201.86;1733329;80;20210;-59
2021/12/19 05:16:45;;;;;;;10.45;4.58;;;;;;;2.13;90.86;148203.17;1718245;81;21503;-61
2021/12/19 05:19:42;;;;;;;7.50;4.37;;;;;;;2.14;90.76;148205.75;1701593;81;22059;-62
2021/12/19 05:21:58;;;;;;;6.35;4.00;;;;;;;2.10;90.73;148195.41;1708460;81;21538;-61
2021/12/19 05:25:24;;;;;;;9.38;4.37;;;;;;;2.11;90.73;148199.28;1688276;82;21091;-58
2021/12/19 05:27:01;;;;;;;8.63;4.10;;;;;;;2.10;90.72;148196.70;1708472;80;21144;-58
2021/12/19 05:29:28;;;;;;;8.18;4.10;;;;;;;2.11;90.70;148199.28;1739420;80;21088;-58
2021/12/19 05:31:55;;;;;;;10.70;4.50;;;;;;;2.11;90.69;148199.28;1720363;80;21684;-58
2021/12/19 05:34:22;;;;;;;8.38;4.75;;;;;;;2.11;90.62;148199.28;1743133;80;21465;-61
2021/12/19 05:45:12;;;;;;;7.70;4.92;;;;;;;2.12;90.64;148201.86;1726618;80;21912;-59
2021/12/19 05:47:43;;;;;;;8.08;4.62;;;;;;;2.12;90.65;148200.59;1736911;80;21074;-61
2021/12/19 05:50:09;;;;;;;13.85;5.62;;;;;;;2.14;90.60;148205.75;1700880;81;21665;-61
2021/12/19 05:52:38;;;;;;;8.28;4.70;;;;;;;2.14;90.45;148207.02;1715083;80;21072;-61
2021/12/19 05:55:05;;;;;;;7.90;4.78;;;;;;;2.14;90.45;148205.75;1726565;81;21037;-58
2021/12/19 05:57:32;;;;;;;10.75;5.25;;;;;;;2.15;90.38;148209.59;1723672;80;21458;-61
2021/12/19 05:59:59;;;;;;;9.03;4.95;;;;;;;2.17;90.38;148213.47;1732768;78;21017;-61
2021/12/19 06:02:26;;;;;;;11.28;5.30;;;;;;;2.17;90.43;148213.47;1743247;80;20978;-61
2021/12/19 06:04:53;;;;;;;11.15;5.65;;;;;;;2.19;90.58;148218.62;1745518;80;21627;-61
2021/12/19 06:07:20;;;;;;;10.43;5.22;;;;;;;2.20;90.48;148221.20;1741309;80;21100;-59
2021/12/19 06:09:47;;;;;;;9.98;4.97;;;;;;;2.21;90.47;148222.47;1673416;83;21127;-59
2021/12/19 06:12:14;;;;;;;10.53;4.87;;;;;;;2.24;90.51;148230.25;1679244;83;21393;-59
2021/12/19 06:14:42;;;;;;;9.75;5.28;;;;;;;2.25;90.45;148234.09;1719718;81;21084;-59
2021/12/19 06:17:09;;;;;;;8.95;4.95;;;;;;;2.28;90.44;148241.81;1671186;83;21610;-58
2021/12/19 06:19:36;;;;;;;9.35;5.12;;;;;;;2.31;90.33;148246.97;1689267;83;21385;-61
2021/12/19 06:22:04;;;;;;;11.85;5.10;;;;;;;2.32;90.19;148249.55;1663564;83;21144;-61
2021/12/19 06:24:32;;;;;;;12.40;5.75;;;;;;;2.34;90.21;148256.02;1724562;80;21084;-59
2021/12/19 06:27:00;;;;;;;9.80;5.92;;;;;;;2.37;90.08;148262.48;1736172;80;21304;-59
2021/12/19 06:29:28;;;;;;;10.08;5.33;;;;;;;2.40;90.02;148270.20;1746840;80;21129;-59
2021/12/19 06:31:55;;;;;;;9.73;5.28;;;;;;;2.46;89.76;148284.41;1745630;80;21182;-59
2021/12/19 06:34:22;;;;;;;12.13;5.60;;;;;;;2.51;89.23;148297.30;1745990;80;21046;-59
2021/12/19 06:36:51;;;;;;;10.35;5.45;;;;;;;2.50;88.81;148295.97;1736582;80;21749;-58
2021/12/19 06:39:17;;;;;;;8.93;4.80;;;;;;;2.48;88.56;148290.83;1744341;80;21104;-59
2021/12/19 06:41:44;;;;;;;11.73;4.78;;;;;;;2.48;88.28;148289.56;1744096;80;21154;-60
2021/12/19 06:44:11;;;;;;;9.03;5.03;;;;;;;2.48;88.14;148290.83;1747073;80;21613;-60
2021/12/19 06:46:37;;;;;;;11.60;5.55;;;;;;;2.50;87.96;148295.97;1737475;80;21652;-58
2021/12/19 06:49:04;;;;;;;11.40;5.35;;;;;;;2.51;87.89;148298.56;1706709;81;21569;-59
2021/12/19 06:51:32;;;;;;;9.98;4.92;;;;;;;2.55;87.70;148308.91;1722997;82;21101;-59
2021/12/19 06:53:58;;;;;;;10.58;5.65;;;;;;;2.58;87.47;148316.64;1719634;81;21109;-59
2021/12/19 06:56:26;;;;;;;9.03;4.60;;;;;;;2.62;87.22;148324.38;1728303;80;21499;-60
2021/12/19 06:58:53;;;;;;;9.38;4.92;;;;;;;2.64;87.04;148329.53;1722330;80;21125;-58
2021/12/19 07:01:19;;;;;;;8.28;4.92;;;;;;;2.66;86.80;148336.00;1719212;80;21017;-59
2021/12/19 07:03:46;;;;;;;9.75;4.85;;;;;;;2.72;86.71;148350.16;1732036;80;21497;-59
2021/12/19 07:06:13;;;;;;;9.40;5.03;;;;;;;2.75;86.33;148357.88;1735087;80;21061;-60
2021/12/19 07:08:40;;;;;;;7.25;4.58;;;;;;;2.77;86.02;148361.77;1746300;80;21016;-60
2021/12/19 07:11:07;;;;;;;8.48;4.80;;;;;;;2.81;85.86;148373.41;1735392;80;21116;-60
2021/12/19 07:13:33;;;;;;;10.25;5.00;;;;;;;2.85;85.55;148383.70;1705898;81;21561;-61
2021/12/19 07:16:00;;;;;;;15.68;5.05;;;;;;;2.88;85.21;148390.17;1716725;80;21085;-59
2021/12/19 07:18:28;;;;;;;8.75;4.92;;;;;;;2.90;85.04;148394.02;1672079;83;21081;-59
2021/12/19 07:20:55;;;;;;;12.88;5.05;;;;;;;2.95;84.97;148406.91;1712694;81;21513;-61
2021/12/19 07:23:22;;;;;;;11.40;5.30;;;;;;;3.03;84.82;148427.58;1703682;81;21528;-61
2021/12/19 07:25:48;;;;;;;10.95;5.72;;;;;;;3.10;84.51;148445.62;1678035;83;21048;-60
2021/12/19 07:28:15;;;;;;;8.08;4.65;;;;;;;3.18;84.20;148463.67;1670583;83;21521;-60
2021/12/19 07:30:42;;;;;;;9.78;5.28;;;;;;;3.22;83.70;148474.03;1674213;83;21094;-62
2021/12/19 07:33:11;;;;;;;8.40;4.95;;;;;;;3.27;83.55;148486.94;1671363;83;21094;-62
2021/12/19 07:35:41;;;;;;;14.15;5.55;;;;;;;3.33;83.25;148502.41;1676079;83;21144;-58
2021/12/19 07:38:09;;;;;;;10.68;4.97;;;;;;;3.39;83.10;148517.88;1676656;82;21405;-60
2021/12/19 07:40:39;;;;;;;9.03;4.87;;;;;;;3.49;82.83;148541.12;1681890;83;21044;-58
2021/12/19 07:43:08;;;;;;;10.10;5.05;;;;;;;3.57;82.49;148561.77;1676401;83;22296;-60
2021/12/19 07:45:34;;;;;;;9.90;5.25;;;;;;;3.65;82.18;148581.14;1664379;83;21738;-60
2021/12/19 07:48:02;;;;;;;8.15;5.33;;;;;;;3.73;81.50;148603.09;1662097;84;22594;-62
2021/12/19 07:50:29;;;;;;;9.40;5.17;;;;;;;3.80;80.77;148618.56;1662983;84;21198;-61
2021/12/19 07:52:55;;;;;;;9.35;4.87;;;;;;;3.82;80.38;148623.72;1707205;82;21779;-61
2021/12/19 07:55:23;;;;;;;10.25;5.47;;;;;;;3.86;80.21;148634.05;1726586;81;21039;-59
2021/12/19 07:57:49;;;;;;;11.22;5.28;;;;;;;3.90;79.54;148644.41;1705601;81;21076;-59
2021/12/19 08:00:19;;;;;;;8.88;5.28;;;;;;;3.93;79.44;148652.16;1726534;81;21127;-58
2021/12/19 08:02:46;;;;;;;9.08;5.50;;;;;;;3.98;78.99;148663.78;1719302;81;21109;-60
2021/12/19 08:05:13;;;;;;;12.23;5.85;;;;;;;3.98;78.62;148665.05;1721965;81;21029;-61
2021/12/19 08:07:42;;;;;;;9.85;5.58;;;;;;;3.99;78.33;148667.63;1691364;82;21080;-63
2021/12/19 08:12:40;;;;;;;13.40;5.30;;;;;;;4.02;77.78;148674.11;1718206;80;21527;-62
2021/12/19 08:15:08;;;;;;;9.78;5.60;;;;;;;4.04;77.67;148679.27;1714653;81;21108;-62
2021/12/19 08:17:35;;;;;;;11.22;5.83;;;;;;;4.05;77.25;148680.53;1749733;79;20974;-61
2021/12/19 08:20:04;;;;;;;8.48;5.00;;;;;;;4.04;77.09;148679.27;1714653;80;21633;-63
2021/12/19 08:22:31;;;;;;;10.80;6.05;;;;;;;4.04;76.99;148677.95;1726224;80;21088;-59
2021/12/19 08:24:59;;;;;;;10.10;5.85;;;;;;;4.05;76.83;148681.84;1675511;83;21148;-59
2021/12/19 08:27:26;;;;;;;8.93;5.33;;;;;;;4.05;76.88;148680.53;1677171;83;21151;-58
2021/12/19 08:29:54;;;;;;;11.57;5.87;;;;;;;4.08;76.87;148688.27;1729179;81;21117;-60
2021/12/19 08:32:23;;;;;;;9.90;5.92;;;;;;;4.14;76.79;148703.80;1715663;81;21693;-59
2021/12/19 08:34:50;;;;;;;11.15;6.55;;;;;;;4.21;76.55;148720.59;1672082;83;21180;-59
2021/12/19 08:37:18;;;;;;;10.45;5.95;;;;;;;4.24;76.09;148729.61;1667394;83;21097;-59
2021/12/19 08:39:46;;;;;;;13.60;6.35;;;;;;;4.26;76.00;148734.77;1668380;83;22242;-59
2021/12/19 08:42:13;;;;;;;10.55;6.15;;;;;;;4.27;75.95;148737.34;1704299;81;21107;-60
2021/12/19 08:44:39;;;;;;;11.80;6.35;;;;;;;4.28;75.78;148739.94;1705191;81;21030;-60
2021/12/19 08:47:06;;;;;;;11.83;6.33;;;;;;;4.29;75.74;148742.50;1701333;81;21107;-60
2021/12/19 08:49:34;;;;;;;12.70;6.42;;;;;;;4.29;75.74;148742.50;1688059;82;21258;-59
2021/12/19 08:52:06;;;;;;;8.90;4.80;;;;;;;4.29;75.90;148742.50;1747039;80;21191;-60
2021/12/19 08:54:32;;;;;;;10.28;5.78;;;;;;;4.28;75.78;148738.66;1717683;81;21518;-65
2021/12/19 08:56:59;;;;;;;11.55;6.10;;;;;;;4.26;75.73;148734.77;1734702;80;21521;-62
2021/12/19 08:59:28;;;;;;;9.18;5.60;;;;;;;4.24;75.79;148729.61;1741057;80;21092;-59
2021/12/19 09:01:59;;;;;;;10.85;6.47;;;;;;;4.22;75.84;148724.44;1741248;80;21792;-59
2021/12/19 09:04:25;;;;;;;10.13;5.60;;;;;;;4.21;75.94;148720.59;1730235;80;21033;-59
2021/12/19 09:06:52;;;;;;;9.53;6.20;;;;;;;4.17;76.22;148711.53;1712234;81;21095;-59
2021/12/19 09:09:21;;;;;;;12.13;6.75;;;;;;;4.14;76.74;148703.80;1727085;81;21590;-60
2021/12/19 09:11:47;;;;;;;10.05;5.55;;;;;;;4.16;77.08;148708.97;1689004;82;21092;-62
2021/12/19 09:14:14;;;;;;;10.13;6.12;;;;;;;4.17;77.23;148711.53;1729704;80;21058;-62
2021/12/19 09:16:41;;;;;;;14.35;6.60;;;;;;;4.20;77.18;148719.28;1733725;80;21097;-61
2021/12/19 09:19:08;;;;;;;12.53;6.17;;;;;;;4.21;77.24;148721.86;1729021;80;21134;-61
2021/12/19 09:21:35;;;;;;;10.38;5.53;;;;;;;4.26;77.31;148734.77;1724093;80;21119;-62
2021/12/19 09:24:03;;;;;;;11.57;6.10;;;;;;;4.30;76.89;148745.09;1745653;80;21322;-62
2021/12/19 09:26:30;;;;;;;10.85;5.05;;;;;;;4.33;76.20;148751.56;1734983;80;21402;-59
2021/12/19 09:28:58;;;;;;;11.65;5.95;;;;;;;4.36;75.75;148758.05;1727945;80;21545;-58
2021/12/19 09:31:26;;;;;;;9.03;5.65;;;;;;;4.39;75.37;148765.78;1736508;80;21567;-59
2021/12/19 09:33:54;;;;;;;10.68;5.33;;;;;;;4.44;75.28;148778.69;1729922;79;21063;-59
2021/12/19 09:36:21;;;;;;;10.63;5.53;;;;;;;4.50;75.12;148794.17;1741768;80;21646;-59
2021/12/19 09:38:48;;;;;;;12.05;5.80;;;;;;;4.54;74.80;148803.23;1737660;79;21167;-59
2021/12/19 09:41:27;;;;;;;12.13;5.97;;;;;;;4.57;74.40;148812.28;1736275;80;21086;-58
2021/12/19 09:43:46;;;;;;;10.93;6.17;;;;;;;4.59;74.11;148816.14;1727739;80;21449;-60
2021/12/19 09:46:16;;;;;;;11.78;5.50;;;;;;;4.59;74.07;148817.45;1727430;80;21119;-59
2021/12/19 09:48:46;;;;;;;10.13;5.53;;;;;;;4.58;73.46;148814.88;1687883;82;21074;-61
2021/12/19 09:51:14;;;;;;;20.88;6.03;;;;;;;4.56;73.58;148809.72;1717795;80;21744;-60
2021/12/19 09:53:41;;;;;;;11.63;5.47;;;;;;;4.57;73.68;148812.28;1732382;80;21546;-60
2021/12/19 09:56:08;;;;;;;10.05;5.50;;;;;;;4.61;73.70;148820.03;1742553;79;21102;-60
2021/12/19 09:58:35;;;;;;;8.98;5.35;;;;;;;4.66;73.68;148832.94;1709937;81;21081;-58
2021/12/19 10:01:06;;;;;;;9.33;4.72;;;;;;;4.72;73.34;148848.44;1707615;81;21670;-59
2021/12/19 10:03:35;;;;;;;8.68;5.42;;;;;;;4.80;72.98;148869.12;1702438;81;21141;-62
2021/12/19 10:06:21;;;;;;;10.28;5.80;;;;;;;4.87;72.73;148887.20;1700419;81;21052;-59
2021/12/19 10:09:08;;;;;;;11.08;5.45;;;;;;;4.93;72.07;148901.44;1711018;81;21060;-60
2021/12/19 10:11:58;;;;;;;10.13;5.45;;;;;;;4.99;71.71;148915.66;1696488;81;21005;-59
2021/12/19 10:14:34;;;;;;;10.75;4.97;;;;;;;5.08;71.57;148938.91;1710974;80;21090;-59
2021/12/19 10:17:04;;;;;;;;;;;;;;;5.20;71.60;148967.34;1728434;81;21139;-59
2021/12/19 10:19:52;;;;;;;9.03;5.28;;;;;;;5.29;71.55;148990.59;1736848;80;20183;-59
2021/12/19 10:22:33;;;;;;;10.18;5.65;;;;;;;5.35;71.14;149006.09;1736748;80;21711;-58
2021/12/19 10:25:20;;;;;;;9.15;5.03;;;;;;;5.39;70.56;149016.42;1733228;80;21121;-59
2021/12/19 10:27:58;;;;;;;8.28;4.30;;;;;;;5.48;70.27;149037.14;1737596;80;21077;-58
2021/12/19 10:30:34;;;;;;;9.10;4.42;;;;;;;5.55;69.74;149056.53;1738624;80;21138;-59
2021/12/19 10:33:10;;;;;;;8.03;4.72;;;;;;;5.64;69.51;149078.52;1731858;80;21134;-58
2021/12/19 10:35:47;;;;;;;11.35;5.10;;;;;;;5.69;68.67;149091.44;1704098;81;21128;-59
2021/12/19 10:38:22;;;;;;;8.50;4.85;;;;;;;5.81;68.49;149121.17;1709378;80;21089;-61
2021/12/19 10:41:00;;;;;;;7.92;4.78;;;;;;;5.81;68.49;149121.17;1734369;80;21159;-59
2021/12/19 10:43:31;;;;;;;7.83;4.25;;;;;;;5.88;67.95;149138.00;1732366;80;21608;-60
2021/12/19 10:46:00;;;;;;;7.65;4.05;;;;;;;5.92;67.72;149148.33;1744764;78;21092;-59
2021/12/19 10:48:37;;;;;;;9.38;4.45;;;;;;;5.96;66.91;149158.66;1742297;80;21092;-59
2021/12/19 10:51:11;;;;;;;7.72;4.65;;;;;;;5.99;66.39;149166.41;1732703;81;22161;-60
2021/12/19 10:53:55;;;;;;;7.78;4.55;;;;;;;6.02;66.15;149174.22;1732913;79;21090;-60
2021/12/19 10:56:26;;;;;;;8.25;4.95;;;;;;;6.07;66.11;149184.55;1727677;80;21234;-59
2021/12/19 10:58:57;;;;;;;6.55;4.15;;;;;;;6.08;65.75;149188.45;1722157;81;21125;-59
2021/12/19 11:01:32;;;;;;;8.40;4.33;;;;;;;6.12;65.83;149198.80;1662223;83;21051;-60
2021/12/19 11:04:22;;;;;;;8.08;4.85;;;;;;;6.18;66.00;149211.72;1699587;82;21538;-59
2021/12/19 11:06:59;;;;;;;9.80;4.78;;;;;;;6.23;65.90;149224.69;1735801;80;21672;-59
2021/12/19 11:09:42;;;;;;;8.00;4.53;;;;;;;6.22;66.28;149223.37;1737365;80;21827;-59
2021/12/19 11:12:06;;;;;;;5.85;3.95;;;;;;;6.28;66.64;149238.88;1740797;80;21124;-59
2021/12/19 11:14:48;;;;;;;11.20;5.00;;;;;;;6.28;66.51;149238.88;1738462;79;21028;-60
2021/12/19 11:17:23;;;;;;;7.55;4.53;;;;;;;6.27;67.04;149236.30;1736050;80;21029;-61
2021/12/19 11:19:53;;;;;;;9.85;4.90;;;;;;;6.23;67.17;149225.95;1707028;81;21077;-60
2021/12/19 11:22:24;;;;;;;8.08;4.53;;;;;;;6.15;67.14;149206.55;1691533;82;21675;-59
2021/12/19 11:25:01;;;;;;;8.48;4.95;;;;;;;6.13;67.61;149200.11;1692289;81;21596;-59
2021/12/19 11:27:28;;;;;;;6.75;4.85;;;;;;;6.10;67.90;149192.36;1706033;82;21590;-60
2021/12/19 11:29:58;;;;;;;8.50;5.08;;;;;;;6.07;68.34;149185.88;1708928;81;21053;-60
2021/12/19 11:32:39;;;;;;;7.87;4.90;;;;;;;6.06;68.80;149183.28;1729151;80;21597;-61
2021/12/19 11:35:12;;;;;;;10.58;5.12;;;;;;;5.98;69.56;149163.83;1746898;80;21160;-62
2021/12/19 11:37:43;;;;;;;9.68;5.12;;;;;;;5.98;69.56;149163.83;1721710;80;21366;-63
2021/12/19 11:40:16;;;;;;;10.93;6.10;;;;;;;5.97;70.10;149161.25;1715851;81;21084;-62
2021/12/19 11:42:43;;;;;;;9.48;5.78;;;;;;;5.92;70.53;149147.02;1673325;83;21057;-62
2021/12/19 11:45:33;;;;;;;7.95;5.00;;;;;;;5.92;70.53;149147.02;1704808;81;21187;-62
2021/12/19 11:48:06;;;;;;;11.05;5.60;;;;;;;5.91;70.62;149144.42;1692140;82;21785;-60
2021/12/19 11:50:32;;;;;;;9.98;5.80;;;;;;;5.89;71.06;149140.58;1691219;82;21019;-59
2021/12/19 11:53:13;;;;;;;7.87;5.05;;;;;;;5.88;71.28;149138.00;1701416;81;21081;-60
2021/12/19 11:55:44;;;;;;;8.08;5.03;;;;;;;5.88;71.28;149138.00;1709176;80;21612;-59
2021/12/19 11:58:22;;;;;;;9.08;5.45;;;;;;;5.90;71.08;149143.16;1721716;80;21624;-61
2021/12/19 12:01:09;;;;;;;10.25;5.17;;;;;;;5.85;71.30;149131.50;1691919;82;22311;-61
2021/12/19 12:04:04;;;;;;;10.15;5.80;;;;;;;5.82;71.77;149122.44;1731537;80;21558;-59
2021/12/19 12:06:34;;;;;;;8.63;5.40;;;;;;;5.80;72.14;149117.28;1704344;82;21655;-60
2021/12/19 12:09:21;;;;;;;11.08;5.53;;;;;;;5.77;72.24;149109.52;1682621;82;21100;-61
2021/12/19 12:12:11;;;;;;;8.45;5.67;;;;;;;5.72;72.82;149099.19;1737420;80;21510;-62
2021/12/19 12:14:43;;;;;;;8.75;5.67;;;;;;;5.69;73.40;149091.44;1725518;81;21539;-60
2021/12/19 12:17:20;;;;;;;10.78;5.35;;;;;;;5.67;73.67;149086.27;1706735;81;21602;-61
2021/12/19 12:19:49;;;;;;;11.28;5.35;;;;;;;5.67;73.75;149084.95;1713953;81;21080;-62
2021/12/19 12:22:38;;;;;;;10.13;5.53;;;;;;;5.66;74.04;149083.69;1722685;80;21107;-61
2021/12/19 12:25:10;;;;;;;10.43;5.17;;;;;;;5.65;74.17;149081.09;1736025;80;21094;-61
2021/12/19 12:27:54;;;;;;;9.30;5.67;;;;;;;5.63;74.36;149074.63;1724840;80;21959;-61
2021/12/19 12:30:29;;;;;;;9.38;5.33;;;;;;;5.58;74.86;149064.28;1731881;80;24524;-61
2021/12/19 12:33:00;;;;;;;9.20;5.67;;;;;;;5.58;74.86;149064.28;1725618;80;21581;-60
2021/12/19 12:35:28;;;;;;;9.75;5.90;;;;;;;5.58;75.42;149062.97;1732383;80;21163;-60
2021/12/19 12:37:57;;;;;;;10.43;5.97;;;;;;;5.58;75.48;149062.97;1705382;81;22894;-61
2021/12/19 12:41:26;;;;;;;15.18;6.17;;;;;;;5.59;75.80;149065.55;1704300;81;21264;-61
2021/12/19 12:43:20;;;;;;;12.85;5.87;;;;;;;5.63;76.11;149074.63;1688488;81;21721;-60